Darlington, New Jersey
Current Conditions -  °F | °C
As of 5:51 AM on Wednesday 26 Nov 2014 (Local Time) from KTEB Reporting Station
Light Rain Light Rain  
Wind Chill: 39°   Ceiling: 5500
Heat Index: 45°   Visibility: 10mi
Dew Point: 30°   Wind: 13mph
Humidity: 56%   Direction: 350°N
Pressure: 30.11"   Gusts: 21mph
Location:  41.0594°N, 74.1457°W
Report Text: KTEB 261051Z 35011G18KT 10SM -RA BKN055 OVC070 07/M01 A3011 RMK AO2 SLP195 P0000 T00721011
Loading
Personal Weather Stations






























Interactive Weather Map New forecast layout! Learn more

10-Day Weather Forecast

Advertisements
Track Severe Weather on mobile